Time;durP1;ratioP1;P1;durP2;ratioP2;P2;SDS_P1;SDS_P2;PMS_P1;PMS_P2;Temp;Humidity;BMP_temperature;BMP_pressure;BME280_temperature;BME280_humidity;BME280_pressure;Samples;Min_cycle;Max_cycle;Signal;HPM_P1;HPM_P2
2021/01/01 00:00:46;;;;;;;74.60;46.67;;;4.80;99.90;;;;;;4998427;28;20458;-68
2021/01/01 00:03:13;;;;;;;98.20;56.97;;;4.80;99.90;;;;;;4998699;28;20477;-69
2021/01/01 00:05:40;;;;;;;115.63;65.47;;;4.80;99.90;;;;;;4998532;28;20466;-70
2021/01/01 00:08:07;;;;;;;119.40;70.93;;;4.90;99.90;;;;;;4999378;28;20454;-69
2021/01/01 00:10:35;;;;;;;153.70;90.60;;;4.90;99.90;;;;;;4999077;28;20552;-68
2021/01/01 00:13:02;;;;;;;186.77;101.60;;;4.90;99.90;;;;;;4998685;28;20454;-68
2021/01/01 00:15:28;;;;;;;193.97;111.23;;;4.90;99.90;;;;;;4998167;28;20557;-69
2021/01/01 00:17:56;;;;;;;174.33;107.63;;;4.90;99.90;;;;;;4996921;28;20482;-69
2021/01/01 00:20:23;;;;;;;171.97;99.73;;;4.90;99.90;;;;;;4989690;28;20446;-69
2021/01/01 00:22:49;;;;;;;157.20;90.47;;;4.90;99.90;;;;;;4996605;28;20515;-69
2021/01/01 00:25:16;;;;;;;149.20;89.10;;;4.80;99.90;;;;;;4996117;28;20438;-69
2021/01/01 00:27:42;;;;;;;124.33;77.50;;;4.90;99.90;;;;;;4995956;28;20552;-69
2021/01/01 00:30:11;;;;;;;128.67;75.00;;;5.00;99.90;;;;;;4995459;28;20497;-69
2021/01/01 00:32:41;;;;;;;110.77;68.33;;;5.00;99.90;;;;;;5002303;28;20457;-68
2021/01/01 00:35:10;;;;;;;117.73;63.57;;;5.00;99.90;;;;;;4995816;28;20895;-68
2021/01/01 00:37:37;;;;;;;115.37;63.80;;;5.00;99.90;;;;;;4996203;28;20457;-67
2021/01/01 00:40:04;;;;;;;90.20;54.00;;;5.00;99.90;;;;;;4998129;28;20462;-69
2021/01/01 00:42:34;;;;;;;96.80;55.50;;;5.10;99.90;;;;;;4996131;28;20442;-69
2021/01/01 00:45:01;;;;;;;90.80;55.23;;;5.10;99.90;;;;;;4990263;28;20431;-69
2021/01/01 00:47:28;;;;;;;88.97;52.20;;;5.00;99.90;;;;;;4989019;28;20434;-68
2021/01/01 00:49:57;;;;;;;89.67;49.80;;;4.90;99.90;;;;;;4996314;28;20454;-68
2021/01/01 00:52:25;;;;;;;80.60;48.10;;;4.90;99.90;;;;;;4990629;28;20532;-69
2021/01/01 00:54:52;;;;;;;84.80;48.50;;;4.90;99.90;;;;;;4995773;28;20435;-69
2021/01/01 00:57:19;;;;;;;72.83;44.13;;;4.90;99.90;;;;;;4994171;28;20514;-69
2021/01/01 00:59:46;;;;;;;63.83;42.37;;;4.90;99.90;;;;;;4988404;28;20465;-69
2021/01/01 01:02:14;;;;;;;67.87;42.43;;;4.80;99.90;;;;;;4990683;28;20557;-68
2021/01/01 01:04:40;;;;;;;65.20;40.07;;;4.80;99.90;;;;;;4989702;28;20865;-68
2021/01/01 01:07:07;;;;;;;65.43;38.20;;;4.80;99.90;;;;;;4990808;28;20431;-68
2021/01/01 01:09:34;;;;;;;67.33;40.70;;;4.80;99.90;;;;;;4993382;28;20460;-69
2021/01/01 01:12:01;;;;;;;69.73;39.17;;;4.70;99.90;;;;;;4990191;28;20458;-68
2021/01/01 01:14:27;;;;;;;59.47;38.20;;;4.70;99.90;;;;;;4992316;28;20546;-69
2021/01/01 01:16:54;;;;;;;72.43;40.70;;;4.70;99.90;;;;;;4991562;28;20866;-69
2021/01/01 01:19:20;;;;;;;70.97;41.23;;;4.70;99.90;;;;;;4992695;28;20565;-69
2021/01/01 01:21:47;;;;;;;70.67;42.90;;;4.60;99.90;;;;;;4992708;28;20491;-68
2021/01/01 01:24:15;;;;;;;78.23;44.77;;;4.60;99.90;;;;;;4991686;28;20549;-69
2021/01/01 01:26:43;;;;;;;79.37;47.30;;;4.60;99.90;;;;;;4985933;28;20467;-69
2021/01/01 01:29:09;;;;;;;79.17;43.13;;;4.70;99.90;;;;;;4993262;28;20506;-69
2021/01/01 01:31:37;;;;;;;88.10;46.10;;;4.70;99.90;;;;;;4973434;28;20533;-68
2021/01/01 01:34:04;;;;;;;85.73;46.63;;;4.70;99.90;;;;;;4984515;28;20450;-68
2021/01/01 01:36:31;;;;;;;84.00;49.40;;;4.70;99.90;;;;;;4986424;28;20497;-67
2021/01/01 01:38:57;;;;;;;90.70;46.90;;;4.70;99.90;;;;;;4990733;28;20841;-68
2021/01/01 01:41:24;;;;;;;75.93;48.30;;;4.70;99.90;;;;;;4988892;28;20537;-69
2021/01/01 01:43:51;;;;;;;79.10;47.50;;;4.60;99.90;;;;;;4990074;28;20534;-69
2021/01/01 01:46:17;;;;;;;83.53;45.50;;;4.60;99.90;;;;;;4987159;28;20526;-69
2021/01/01 01:48:46;;;;;;;78.47;48.37;;;4.60;99.90;;;;;;4989365;28;20542;-69
2021/01/01 01:51:12;;;;;;;81.83;46.57;;;4.60;99.90;;;;;;4993230;28;20939;-69
2021/01/01 01:53:42;;;;;;;93.90;52.10;;;4.70;99.90;;;;;;4986474;28;20462;-68
2021/01/01 01:56:09;;;;;;;86.53;48.43;;;4.70;99.90;;;;;;4986743;28;20479;-69
2021/01/01 01:58:36;;;;;;;74.40;44.10;;;4.70;99.90;;;;;;4989086;28;20497;-69
2021/01/01 02:01:04;;;;;;;69.67;44.43;;;4.70;99.90;;;;;;4984990;28;20464;-69
2021/01/01 02:03:32;;;;;;;77.40;43.40;;;4.60;99.90;;;;;;4986602;28;20521;-69
2021/01/01 02:05:59;;;;;;;63.43;38.57;;;4.60;99.90;;;;;;4993434;28;20510;-69
2021/01/01 02:08:26;;;;;;;78.80;42.83;;;4.60;99.90;;;;;;4987012;28;20916;-69
2021/01/01 02:10:55;;;;;;;62.27;36.60;;;4.60;99.90;;;;;;4989130;28;20501;-71
2021/01/01 02:13:23;;;;;;;59.77;37.97;;;4.60;99.90;;;;;;4985983;28;20509;-68
2021/01/01 02:15:49;;;;;;;62.27;37.13;;;4.50;99.90;;;;;;4987100;28;20482;-69
2021/01/01 02:18:38;;;;;;;54.10;32.33;;;4.60;99.90;;;;;;4988087;28;20558;-68
2021/01/01 02:21:05;;;;;;;54.80;33.43;;;4.60;99.90;;;;;;4987292;28;20550;-68
2021/01/01 02:23:34;;;;;;;52.10;30.60;;;4.60;99.90;;;;;;4992412;28;20468;-68
2021/01/01 02:26:01;;;;;;;51.47;32.00;;;4.60;99.90;;;;;;4990906;28;20521;-70
2021/01/01 02:28:27;;;;;;;58.07;31.90;;;4.60;99.90;;;;;;4986402;28;20782;-70
2021/01/01 02:30:53;;;;;;;49.63;29.93;;;4.50;99.90;;;;;;4986048;28;20453;-69
2021/01/01 02:33:20;;;;;;;44.33;29.00;;;4.50;99.90;;;;;;4986719;28;20565;-69
2021/01/01 02:35:46;;;;;;;44.00;26.93;;;4.50;99.90;;;;;;4989333;28;20554;-68
2021/01/01 02:38:13;;;;;;;51.13;27.80;;;4.50;99.90;;;;;;4987254;28;20606;-68
2021/01/01 02:40:40;;;;;;;41.10;24.10;;;4.50;99.90;;;;;;4983928;28;20489;-69
2021/01/01 02:43:07;;;;;;;40.47;23.00;;;4.50;99.90;;;;;;4992541;28;20486;-68
2021/01/01 02:45:33;;;;;;;39.67;22.73;;;4.40;99.90;;;;;;4984371;28;20845;-69
2021/01/01 02:48:09;;;;;;;38.00;21.80;;;4.50;99.90;;;;;;4984410;28;20525;-69
2021/01/01 02:50:36;;;;;;;35.67;23.67;;;4.50;99.90;;;;;;4988120;28;20807;-68
2021/01/01 02:53:03;;;;;;;35.20;22.40;;;4.40;99.90;;;;;;4990895;28;20529;-69
2021/01/01 02:55:30;;;;;;;39.07;23.37;;;4.40;99.90;;;;;;4986096;28;20481;-70
2021/01/01 02:57:58;;;;;;;31.43;19.70;;;4.50;99.90;;;;;;4988608;28;20489;-67
2021/01/01 03:00:24;;;;;;;31.30;20.57;;;4.50;99.90;;;;;;4985306;28;20799;-68
2021/01/01 03:02:51;;;;;;;40.03;21.77;;;4.50;99.90;;;;;;4987644;28;20466;-69
2021/01/01 03:05:17;;;;;;;36.97;19.50;;;4.50;99.90;;;;;;4989181;28;21016;-68
2021/01/01 03:07:43;;;;;;;31.00;20.77;;;4.50;99.90;;;;;;4984913;28;20578;-68
2021/01/01 03:10:10;;;;;;;39.37;18.87;;;4.50;99.90;;;;;;4986805;28;20474;-68
2021/01/01 03:12:36;;;;;;;31.63;19.30;;;4.50;99.90;;;;;;4986046;28;20533;-68
2021/01/01 03:15:04;;;;;;;33.13;19.27;;;4.50;99.90;;;;;;4986178;28;20452;-69
2021/01/01 03:17:30;;;;;;;36.83;19.40;;;4.50;99.90;;;;;;4987460;28;20577;-68
2021/01/01 03:19:57;;;;;;;30.23;20.10;;;4.50;99.90;;;;;;4992546;28;20439;-68
2021/01/01 03:22:23;;;;;;;35.50;19.00;;;4.50;99.90;;;;;;4987693;28;20844;-67
2021/01/01 03:24:50;;;;;;;36.70;21.33;;;4.50;99.90;;;;;;4990790;28;20435;-70
2021/01/01 03:27:16;;;;;;;33.67;19.50;;;4.50;99.90;;;;;;4988166;28;20472;-68
2021/01/01 03:29:43;;;;;;;32.53;19.90;;;4.40;99.90;;;;;;4984403;28;20501;-68
2021/01/01 03:32:10;;;;;;;31.03;18.03;;;4.40;99.90;;;;;;4986401;28;20969;-69
2021/01/01 03:34:36;;;;;;;30.57;18.93;;;4.50;99.90;;;;;;4987145;28;20435;-68
2021/01/01 03:37:03;;;;;;;26.87;18.30;;;4.40;99.90;;;;;;4990514;28;20496;-68
2021/01/01 03:39:29;;;;;;;25.27;16.30;;;4.40;99.90;;;;;;4989065;28;20467;-68
2021/01/01 03:41:55;;;;;;;37.50;17.33;;;4.40;99.90;;;;;;4988908;28;20467;-67
2021/01/01 03:44:22;;;;;;;33.70;18.83;;;4.40;99.90;;;;;;4987496;28;20578;-68
2021/01/01 03:46:48;;;;;;;30.77;18.43;;;4.40;99.90;;;;;;4984195;28;20451;-67
2021/01/01 03:49:15;;;;;;;29.00;18.70;;;4.50;99.90;;;;;;4984298;28;20443;-68
2021/01/01 03:51:42;;;;;;;29.53;19.30;;;4.50;99.90;;;;;;4989784;28;20549;-67
2021/01/01 03:54:08;;;;;;;26.57;17.77;;;4.50;99.90;;;;;;5346130;23;20840;-67
2021/01/01 03:56:35;;;;;;;26.93;16.33;;;4.50;99.90;;;;;;4986153;28;20574;-67
2021/01/01 03:59:01;;;;;;;37.13;18.43;;;4.40;99.90;;;;;;4986570;28;20470;-68
2021/01/01 04:01:28;;;;;;;37.30;20.50;;;4.40;99.90;;;;;;4986865;28;20488;-68
2021/01/01 04:03:54;;;;;;;29.70;18.40;;;4.40;99.90;;;;;;4986018;28;20443;-68
2021/01/01 04:06:21;;;;;;;24.87;16.90;;;4.40;99.90;;;;;;4988738;28;20434;-68
2021/01/01 04:08:48;;;;;;;24.47;16.90;;;4.40;99.90;;;;;;4982797;28;20453;-68
2021/01/01 04:11:14;;;;;;;25.63;16.90;;;4.40;99.90;;;;;;4987933;28;21070;-67
2021/01/01 04:13:41;;;;;;;28.83;19.17;;;4.40;99.90;;;;;;5450153;23;20573;-68
2021/01/01 04:16:08;;;;;;;28.97;18.67;;;4.40;99.90;;;;;;4985857;28;20787;-69
2021/01/01 04:18:34;;;;;;;35.83;22.60;;;4.40;99.90;;;;;;5022585;23;20532;-67
2021/01/01 04:21:01;;;;;;;33.20;19.83;;;4.40;99.90;;;;;;4988462;28;20559;-67
2021/01/01 04:23:28;;;;;;;37.97;21.23;;;4.50;99.90;;;;;;4984591;28;20449;-67
2021/01/01 04:25:54;;;;;;;33.70;18.20;;;4.40;99.90;;;;;;5657466;23;20498;-67
2021/01/01 04:28:21;;;;;;;38.63;18.97;;;4.40;99.90;;;;;;4990451;28;20452;-69
2021/01/01 04:30:47;;;;;;;34.90;20.20;;;4.40;99.90;;;;;;4994639;28;20509;-68
2021/01/01 04:33:13;;;;;;;27.73;19.67;;;4.40;99.90;;;;;;5490579;23;20834;-67
2021/01/01 04:35:40;;;;;;;28.93;17.70;;;4.40;99.90;;;;;;4994423;28;20518;-67
2021/01/01 04:38:06;;;;;;;32.90;17.67;;;4.40;99.90;;;;;;4992010;28;20515;-68
2021/01/01 04:40:34;;;;;;;33.37;19.50;;;4.40;99.90;;;;;;4989279;28;20541;-68
2021/01/01 04:43:00;;;;;;;35.87;20.50;;;4.40;99.90;;;;;;4989860;28;20434;-67
2021/01/01 04:45:28;;;;;;;30.07;19.27;;;4.50;99.90;;;;;;4988290;28;20438;-68
2021/01/01 04:47:54;;;;;;;33.30;19.90;;;4.50;99.90;;;;;;4987870;28;20442;-67
2021/01/01 04:50:21;;;;;;;31.90;19.77;;;4.40;99.90;;;;;;4990595;28;20449;-68
2021/01/01 04:52:50;;;;;;;28.27;16.63;;;4.50;99.90;;;;;;4989604;28;20532;-69
2021/01/01 04:55:17;;;;;;;28.67;17.77;;;4.40;99.90;;;;;;4995669;28;20473;-67
2021/01/01 04:57:44;;;;;;;43.33;26.60;;;4.40;99.90;;;;;;4991185;28;20797;-68
2021/01/01 05:00:11;;;;;;;36.47;23.23;;;4.30;99.90;;;;;;4988458;28;20532;-68
2021/01/01 05:02:37;;;;;;;29.37;18.67;;;4.30;99.90;;;;;;4989563;28;20504;-69
2021/01/01 05:05:05;;;;;;;25.40;17.13;;;4.40;99.90;;;;;;4989084;28;20532;-69
2021/01/01 05:07:32;;;;;;;30.53;18.47;;;4.40;99.90;;;;;;4992745;28;20501;-67
2021/01/01 05:09:58;;;;;;;34.97;20.33;;;4.40;99.90;;;;;;4993529;28;20439;-67
2021/01/01 05:12:31;;;;;;;29.63;17.43;;;4.40;99.90;;;;;;4993126;28;20520;-69
2021/01/01 05:14:58;;;;;;;25.17;16.40;;;4.30;99.90;;;;;;4993580;28;20447;-68
2021/01/01 05:17:32;;;;;;;25.90;17.10;;;4.40;99.90;;;;;;4989100;28;20873;-68
2021/01/01 05:20:08;;;;;;;30.60;18.27;;;4.40;99.90;;;;;;4993165;28;20462;-67
2021/01/01 05:22:34;;;;;;;32.50;20.90;;;4.40;99.90;;;;;;4999609;28;20949;-68
2021/01/01 05:25:04;;;;;;;37.60;19.50;;;4.40;99.90;;;;;;5000325;28;20537;-67
2021/01/01 05:27:34;;;;;;;33.33;19.27;;;4.40;99.90;;;;;;4999461;28;20534;-67
2021/01/01 05:30:02;;;;;;;36.37;18.90;;;4.40;99.90;;;;;;4998574;28;20458;-69
2021/01/01 05:32:30;;;;;;;31.27;17.93;;;4.30;99.90;;;;;;4992563;28;20496;-68
2021/01/01 05:34:57;;;;;;;30.30;16.70;;;4.30;99.90;;;;;;4998745;28;20553;-69
2021/01/01 05:37:28;;;;;;;29.90;18.27;;;4.30;99.90;;;;;;4998335;28;20572;-68
2021/01/01 05:40:06;;;;;;;31.60;16.93;;;4.20;99.90;;;;;;5002966;28;20529;-70
2021/01/01 05:42:33;;;;;;;33.03;17.23;;;4.20;99.90;;;;;;5001935;28;20518;-68
2021/01/01 05:45:13;;;;;;;24.70;16.70;;;4.20;99.90;;;;;;4999652;28;20576;-67
2021/01/01 05:47:40;;;;;;;27.10;17.13;;;4.10;99.90;;;;;;5001563;28;20560;-69
2021/01/01 05:50:08;;;;;;;30.93;17.27;;;4.10;99.90;;;;;;5000303;28;20516;-67
2021/01/01 05:52:34;;;;;;;29.23;18.10;;;4.10;99.90;;;;;;4999405;28;20600;-68
2021/01/01 05:55:03;;;;;;;27.57;18.83;;;4.10;99.90;;;;;;5000098;28;20450;-68
2021/01/01 05:57:37;;;;;;;27.60;16.30;;;4.10;99.90;;;;;;4999506;28;20593;-68
2021/01/01 06:00:08;;;;;;;30.33;19.53;;;4.10;99.90;;;;;;4999594;28;20870;-67
2021/01/01 06:02:38;;;;;;;29.53;17.30;;;4.10;99.90;;;;;;4999540;28;20478;-68
2021/01/01 06:05:08;;;;;;;30.53;17.90;;;4.00;99.90;;;;;;4999026;28;20446;-69
2021/01/01 06:07:37;;;;;;;29.47;19.27;;;4.00;99.90;;;;;;4999653;28;20462;-68
2021/01/01 06:10:05;;;;;;;31.43;17.63;;;4.00;99.90;;;;;;4999362;28;20477;-69
2021/01/01 06:12:35;;;;;;;34.23;18.90;;;4.00;99.90;;;;;;4998911;28;20452;-68
2021/01/01 06:15:03;;;;;;;31.70;20.00;;;4.00;99.90;;;;;;4999229;28;20458;-69
2021/01/01 06:17:34;;;;;;;27.80;17.70;;;4.00;99.90;;;;;;4999307;28;20552;-69
2021/01/01 06:20:05;;;;;;;29.03;18.67;;;4.00;99.90;;;;;;4999645;28;20532;-68
2021/01/01 06:22:31;;;;;;;31.13;17.73;;;4.00;99.90;;;;;;4999159;28;20434;-68
2021/01/01 06:24:59;;;;;;;28.47;17.17;;;4.00;99.90;;;;;;4999429;28;20894;-68
2021/01/01 06:27:26;;;;;;;28.77;17.40;;;4.10;99.90;;;;;;4999188;28;20503;-68
2021/01/01 06:29:57;;;;;;;32.33;17.63;;;4.10;99.90;;;;;;4999144;28;20489;-68
2021/01/01 06:32:24;;;;;;;32.90;18.67;;;4.00;99.90;;;;;;4999993;28;20825;-69
2021/01/01 06:34:52;;;;;;;35.27;19.63;;;3.90;99.90;;;;;;4996675;28;20823;-69
2021/01/01 06:37:39;;;;;;;27.00;16.50;;;3.90;99.90;;;;;;4998886;28;20926;-69
2021/01/01 06:40:08;;;;;;;31.07;19.77;;;3.80;99.90;;;;;;5001296;28;20501;-68
2021/01/01 06:42:51;;;;;;;31.70;18.83;;;3.90;99.90;;;;;;5002371;28;20860;-68
2021/01/01 06:45:39;;;;;;;32.77;18.57;;;3.80;99.90;;;;;;5002006;28;20492;-69
2021/01/01 06:48:07;;;;;;;31.43;18.53;;;3.70;99.90;;;;;;5002724;28;20450;-69
2021/01/01 06:50:35;;;;;;;38.73;19.73;;;3.70;99.90;;;;;;5001965;28;20462;-67
2021/01/01 06:53:04;;;;;;;29.37;17.40;;;3.70;99.90;;;;;;5002217;28;20446;-68
2021/01/01 06:55:31;;;;;;;28.60;18.70;;;3.70;99.90;;;;;;5002569;28;20541;-68
2021/01/01 06:57:58;;;;;;;30.00;19.77;;;3.60;99.90;;;;;;5001580;28;20930;-68
2021/01/01 07:00:52;;;;;;;36.73;20.47;;;3.70;99.90;;;;;;5001920;28;20827;-68
2021/01/01 07:03:38;;;;;;;32.77;20.97;;;3.70;99.90;;;;;;5001597;28;20454;-68
2021/01/01 07:06:33;;;;;;;33.33;19.20;;;3.70;99.90;;;;;;5001776;28;20521;-68
2021/01/01 07:09:01;;;;;;;33.30;19.57;;;3.60;99.90;;;;;;5000645;28;20508;-68
2021/01/01 07:11:39;;;;;;;40.27;20.83;;;3.60;99.90;;;;;;5001848;28;20760;-68
2021/01/01 07:14:08;;;;;;;28.27;19.00;;;3.60;99.90;;;;;;5001492;28;20923;-68
2021/01/01 07:16:36;;;;;;;38.33;21.80;;;3.50;99.90;;;;;;5001576;28;20844;-68
2021/01/01 07:19:03;;;;;;;33.30;21.47;;;3.50;99.90;;;;;;5001411;28;20542;-68
2021/01/01 07:21:30;;;;;;;39.40;19.77;;;3.60;99.90;;;;;;5000680;28;20474;-68
2021/01/01 07:23:57;;;;;;;35.80;19.93;;;3.50;99.90;;;;;;5001079;28;20787;-68
2021/01/01 07:26:27;;;;;;;32.93;19.30;;;3.50;99.90;;;;;;4999973;28;20534;-67
2021/01/01 07:28:54;;;;;;;34.63;19.67;;;3.60;99.90;;;;;;4998714;28;20434;-68
2021/01/01 07:31:21;;;;;;;39.73;18.80;;;3.60;99.90;;;;;;4998932;28;20517;-67
2021/01/01 07:33:48;;;;;;;31.60;18.57;;;3.50;99.90;;;;;;5001956;28;20517;-67
2021/01/01 07:36:15;;;;;;;34.63;21.10;;;3.60;99.90;;;;;;5002019;28;20880;-69
2021/01/01 07:38:43;;;;;;;37.33;20.60;;;3.50;99.90;;;;;;5001509;28;20464;-68
2021/01/01 07:41:09;;;;;;;27.30;17.07;;;3.50;99.90;;;;;;5002095;28;20537;-67
2021/01/01 07:43:38;;;;;;;34.10;20.37;;;3.50;99.90;;;;;;4998582;28;20512;-68
2021/01/01 07:46:06;;;;;;;33.40;19.00;;;3.50;99.90;;;;;;4998361;28;20477;-68
2021/01/01 07:48:33;;;;;;;32.73;20.00;;;3.60;99.90;;;;;;4996574;28;20442;-67
2021/01/01 07:51:00;;;;;;;35.07;20.30;;;3.50;99.90;;;;;;4994933;28;20841;-67
2021/01/01 07:53:27;;;;;;;37.90;19.90;;;3.60;99.90;;;;;;4996062;28;20454;-68
2021/01/01 07:55:59;;;;;;;30.33;20.30;;;3.60;99.90;;;;;;4997634;28;20529;-68
2021/01/01 07:58:27;;;;;;;34.17;19.23;;;3.60;99.90;;;;;;4999852;28;20438;-68
2021/01/01 08:01:00;;;;;;;34.40;19.90;;;3.60;99.90;;;;;;4996536;28;20509;-68
2021/01/01 08:03:27;;;;;;;34.47;20.67;;;3.60;99.90;;;;;;4997747;28;20477;-67
2021/01/01 08:05:54;;;;;;;34.10;20.00;;;3.60;99.90;;;;;;4995993;28;20490;-69
2021/01/01 08:08:22;;;;;;;31.07;19.20;;;3.60;99.90;;;;;;4994977;28;20449;-68
2021/01/01 08:10:50;;;;;;;31.50;18.70;;;3.70;99.90;;;;;;4994711;28;20457;-69
2021/01/01 08:13:18;;;;;;;25.53;16.07;;;3.70;99.90;;;;;;4997462;28;20496;-67
2021/01/01 08:15:45;;;;;;;30.77;21.40;;;3.70;99.90;;;;;;4997941;28;20480;-68
2021/01/01 08:18:15;;;;;;;26.60;16.67;;;3.70;99.90;;;;;;4998439;28;20467;-68
2021/01/01 08:20:46;;;;;;;31.10;19.93;;;3.70;99.90;;;;;;4997884;28;20841;-68
2021/01/01 08:23:14;;;;;;;30.43;18.10;;;3.70;99.90;;;;;;4996921;28;20876;-67
2021/01/01 08:25:41;;;;;;;29.33;17.83;;;3.70;99.90;;;;;;4995202;28;20536;-69
2021/01/01 08:28:08;;;;;;;31.83;19.63;;;3.70;99.90;;;;;;4995161;28;20656;-68
2021/01/01 08:30:37;;;;;;;29.13;19.47;;;3.70;99.90;;;;;;4995733;28;20540;-68
2021/01/01 08:33:05;;;;;;;28.43;19.57;;;3.70;99.90;;;;;;4996576;28;20946;-68
2021/01/01 08:35:33;;;;;;;42.33;22.13;;;3.80;99.90;;;;;;4997492;28;20505;-68
2021/01/01 08:37:59;;;;;;;35.50;21.57;;;3.80;99.90;;;;;;4997312;28;20544;-67
2021/01/01 08:40:25;;;;;;;38.30;21.33;;;3.80;99.90;;;;;;4997208;28;20446;-67
2021/01/01 08:42:54;;;;;;;28.93;20.17;;;3.80;99.90;;;;;;4997289;28;20788;-68
2021/01/01 08:45:21;;;;;;;35.67;20.07;;;3.80;99.90;;;;;;4997428;28;20468;-67
2021/01/01 08:47:49;;;;;;;36.53;18.43;;;3.80;99.90;;;;;;4998619;28;20616;-68
2021/01/01 08:50:20;;;;;;;33.93;19.93;;;3.90;99.90;;;;;;4997768;28;20540;-67
2021/01/01 08:52:49;;;;;;;32.00;20.33;;;3.90;99.90;;;;;;5001445;28;20852;-67
2021/01/01 08:55:16;;;;;;;32.20;18.80;;;3.90;99.90;;;;;;5000879;28;20536;-67
2021/01/01 08:57:42;;;;;;;27.10;17.20;;;4.00;99.90;;;;;;4982563;28;20525;-68
2021/01/01 09:00:10;;;;;;;31.97;18.37;;;4.00;99.90;;;;;;5000414;28;20462;-66
2021/01/01 09:02:42;;;;;;;34.67;20.13;;;4.00;99.90;;;;;;5002610;28;20811;-67
2021/01/01 09:05:12;;;;;;;34.63;18.43;;;3.90;99.90;;;;;;5006193;28;20458;-67
2021/01/01 09:07:38;;;;;;;30.57;18.13;;;3.90;99.90;;;;;;5009023;28;20525;-67
2021/01/01 09:10:19;;;;;;;34.47;19.03;;;3.90;99.90;;;;;;5002825;28;20506;-64
2021/01/01 09:12:46;;;;;;;38.00;19.00;;;3.90;99.90;;;;;;5003337;28;20485;-65
2021/01/01 09:15:26;;;;;;;32.57;21.47;;;4.00;99.90;;;;;;5003083;28;20458;-63
2021/01/01 09:18:04;;;;;;;32.00;19.30;;;4.00;99.90;;;;;;5002572;28;20520;-63
2021/01/01 09:20:33;;;;;;;29.37;18.27;;;4.10;99.90;;;;;;5004499;28;20941;-64
2021/01/01 09:23:00;;;;;;;28.77;17.77;;;4.10;99.90;;;;;;5009370;28;20453;-65
2021/01/01 09:25:29;;;;;;;26.80;19.20;;;4.10;99.90;;;;;;5007274;28;20438;-65
2021/01/01 09:27:57;;;;;;;27.80;17.80;;;4.10;99.90;;;;;;5001888;28;20458;-64
2021/01/01 09:30:25;;;;;;;32.87;20.27;;;4.20;99.90;;;;;;5000082;28;20453;-65
2021/01/01 09:32:54;;;;;;;38.17;18.27;;;4.20;99.90;;;;;;5000133;28;20469;-64
2021/01/01 09:35:21;;;;;;;24.83;15.60;;;4.30;99.90;;;;;;5002967;28;20430;-64
2021/01/01 09:37:50;;;;;;;34.53;18.37;;;4.30;99.90;;;;;;5003542;28;20485;-65
2021/01/01 09:40:18;;;;;;;29.40;17.30;;;4.40;99.90;;;;;;4992559;28;20538;-65
2021/01/01 09:42:45;;;;;;;31.17;19.40;;;4.40;99.90;;;;;;4982686;28;20979;-65
2021/01/01 09:45:15;;;;;;;30.00;18.47;;;4.40;99.90;;;;;;4980387;28;20466;-65
2021/01/01 09:47:42;;;;;;;26.33;15.80;;;4.40;99.90;;;;;;4982995;28;20447;-65
2021/01/01 09:50:12;;;;;;;40.80;18.80;;;4.50;99.90;;;;;;4981261;28;20462;-65
2021/01/01 09:52:39;;;;;;;24.47;16.63;;;4.50;99.90;;;;;;4981623;28;20549;-65
2021/01/01 09:55:08;;;;;;;27.87;17.10;;;4.50;99.90;;;;;;4987775;28;20928;-64
2021/01/01 09:57:35;;;;;;;27.50;17.20;;;4.50;99.90;;;;;;4981893;28;20486;-64
2021/01/01 10:00:03;;;;;;;33.00;19.00;;;4.60;99.90;;;;;;4981283;28;20458;-64
2021/01/01 10:02:30;;;;;;;29.83;17.03;;;4.60;99.90;;;;;;4981327;28;20463;-65
2021/01/01 10:04:57;;;;;;;29.10;19.10;;;4.60;99.90;;;;;;4982176;28;20454;-65
2021/01/01 10:07:23;;;;;;;28.77;17.70;;;4.60;99.90;;;;;;4982133;28;20542;-64
2021/01/01 10:09:49;;;;;;;30.30;18.40;;;4.50;99.90;;;;;;4985749;28;20446;-65
2021/01/01 10:12:18;;;;;;;24.60;17.63;;;4.40;99.90;;;;;;4993818;28;20514;-65
2021/01/01 10:14:45;;;;;;;32.33;19.50;;;4.50;99.90;;;;;;4988333;28;20460;-65
2021/01/01 10:17:12;;;;;;;34.07;18.30;;;4.50;99.90;;;;;;4989219;28;20568;-65
2021/01/01 10:19:41;;;;;;;28.10;19.27;;;4.60;99.90;;;;;;4995264;28;20442;-65
2021/01/01 10:22:07;;;;;;;29.93;15.90;;;4.70;99.90;;;;;;5000642;28;20457;-65
2021/01/01 10:24:36;;;;;;;28.63;18.53;;;4.70;99.90;;;;;;5000771;28;20545;-65
2021/01/01 10:27:03;;;;;;;30.23;17.40;;;4.70;99.90;;;;;;5000058;28;20771;-66
2021/01/01 10:29:29;;;;;;;28.97;18.00;;;4.70;99.90;;;;;;4998293;28;20522;-66
2021/01/01 10:32:03;;;;;;;35.37;20.60;;;4.80;99.90;;;;;;4981950;28;20451;-65
2021/01/01 10:34:30;;;;;;;28.47;18.27;;;4.80;99.90;;;;;;4999815;28;20769;-64
2021/01/01 10:36:56;;;;;;;36.73;19.97;;;4.80;99.90;;;;;;5000221;28;20576;-65
2021/01/01 10:39:23;;;;;;;33.57;18.30;;;4.80;99.90;;;;;;4999878;28;20478;-65
2021/01/01 10:41:50;;;;;;;30.80;17.70;;;4.90;99.90;;;;;;4994992;28;20465;-66
2021/01/01 10:44:17;;;;;;;35.40;19.23;;;4.80;99.90;;;;;;4995824;28;20604;-63
2021/01/01 10:46:48;;;;;;;29.23;16.80;;;4.90;99.90;;;;;;4983809;28;20454;-65
2021/01/01 10:49:14;;;;;;;32.17;18.30;;;4.90;99.90;;;;;;4980981;28;20530;-63
2021/01/01 10:51:41;;;;;;;31.80;19.30;;;4.90;99.90;;;;;;4998809;28;20939;-65
2021/01/01 10:54:08;;;;;;;33.57;19.60;;;4.90;99.90;;;;;;4994818;28;20516;-64
2021/01/01 10:56:34;;;;;;;27.10;15.87;;;4.90;99.90;;;;;;5001149;28;20512;-64
2021/01/01 10:59:01;;;;;;;30.60;17.83;;;5.00;99.90;;;;;;4999585;28;20450;-66
2021/01/01 11:01:27;;;;;;;28.93;19.47;;;4.90;99.90;;;;;;4999485;28;20534;-62
2021/01/01 11:03:53;;;;;;;32.37;20.63;;;5.00;99.90;;;;;;5002381;28;20789;-63
2021/01/01 11:06:20;;;;;;;25.50;16.97;;;5.00;99.90;;;;;;5005415;28;20489;-63
2021/01/01 11:08:48;;;;;;;32.50;19.80;;;5.00;99.90;;;;;;5006041;28;20454;-64
2021/01/01 11:11:20;;;;;;;33.97;17.37;;;5.00;99.90;;;;;;5004343;28;20442;-63
2021/01/01 11:13:49;;;;;;;25.87;17.03;;;5.00;99.90;;;;;;5004430;28;20443;-64
2021/01/01 12:22:26;;;;;;;27.60;16.80;;;5.20;99.90;;;;;;5001313;28;20446;-63
2021/01/01 12:24:54;;;;;;;28.80;16.13;;;5.20;99.90;;;;;;4987395;28;20584;-64
2021/01/01 12:27:22;;;;;;;24.27;15.40;;;5.20;99.90;;;;;;5002828;28;20445;-64
2021/01/01 12:29:51;;;;;;;44.93;26.43;;;5.20;99.90;;;;;;5005325;28;20468;-64
2021/01/01 12:32:19;;;;;;;33.77;18.13;;;5.30;99.90;;;;;;4996258;28;20961;-64
2021/01/01 12:34:47;;;;;;;25.17;15.03;;;5.20;99.90;;;;;;4999610;28;20451;-63
2021/01/01 12:42:32;;;;;;;30.63;16.30;;;5.20;99.90;;;;;;5574032;23;20489;-64
2021/01/01 12:47:36;;;;;;;21.97;14.07;;;5.20;99.90;;;;;;5614864;23;20496;-64
2021/01/01 12:50:03;;;;;;;26.87;18.20;;;5.20;99.90;;;;;;5006473;28;20481;-64
2021/01/01 12:52:30;;;;;;;21.80;13.50;;;5.20;99.90;;;;;;5003896;28;20453;-64
2021/01/01 12:54:56;;;;;;;22.00;14.47;;;5.20;99.90;;;;;;4988787;28;20470;-66
2021/01/01 12:57:22;;;;;;;27.60;14.77;;;5.20;99.90;;;;;;4985467;28;21023;-66
2021/01/01 12:59:50;;;;;;;23.83;14.40;;;5.20;99.90;;;;;;4988891;28;20481;-64
2021/01/01 13:02:16;;;;;;;19.07;12.77;;;5.20;99.90;;;;;;4997268;28;20541;-64
2021/01/01 13:04:44;;;;;;;24.60;12.77;;;5.10;99.90;;;;;;4992615;28;20485;-64
2021/01/01 13:14:56;;;;;;;18.97;11.00;;;5.10;99.90;;;;;;5441717;23;20477;-64
2021/01/01 13:17:23;;;;;;;24.83;13.73;;;5.20;99.90;;;;;;4996890;28;20482;-63
2021/01/01 13:19:50;;;;;;;18.93;12.27;;;5.20;99.90;;;;;;4997341;28;20431;-64
2021/01/01 13:22:16;;;;;;;19.03;10.50;;;5.20;99.90;;;;;;4997460;28;20458;-65
2021/01/01 13:24:43;;;;;;;19.40;11.67;;;5.20;99.90;;;;;;4988258;28;20482;-66
2021/01/01 13:29:44;;;;;;;19.30;11.40;;;5.10;99.90;;;;;;5670803;23;20473;-63
2021/01/01 13:32:11;;;;;;;17.23;10.60;;;5.00;99.90;;;;;;4993339;28;20574;-65
2021/01/01 13:34:37;;;;;;;15.40;9.60;;;5.00;99.90;;;;;;4992479;28;20443;-64
2021/01/01 13:37:05;;;;;;;21.00;13.10;;;5.00;99.90;;;;;;4991357;28;20624;-65
2021/01/01 13:39:31;;;;;;;19.47;12.00;;;5.00;99.90;;;;;;4993592;28;20463;-65
2021/01/01 13:41:57;;;;;;;19.13;10.93;;;5.00;99.90;;;;;;5002387;28;20470;-65
2021/01/01 13:44:24;;;;;;;17.20;10.87;;;5.00;99.90;;;;;;4996899;28;20462;-65
2021/01/01 13:46:52;;;;;;;18.17;11.77;;;5.00;99.90;;;;;;5000984;28;20489;-65
2021/01/01 13:49:18;;;;;;;16.97;10.53;;;5.00;99.90;;;;;;5000794;28;20446;-63
2021/01/01 13:51:45;;;;;;;18.77;12.07;;;4.90;99.90;;;;;;4997880;28;20446;-64
2021/01/01 13:54:12;;;;;;;18.70;10.23;;;4.90;99.90;;;;;;4998819;28;20772;-65
2021/01/01 13:56:38;;;;;;;18.77;11.77;;;4.90;99.90;;;;;;4997926;28;20468;-65
2021/01/01 13:59:05;;;;;;;17.93;11.73;;;4.90;99.90;;;;;;4989708;28;20993;-64
2021/01/01 14:01:31;;;;;;;16.20;11.73;;;4.90;99.90;;;;;;4998787;28;20478;-65
2021/01/01 14:03:58;;;;;;;15.47;11.30;;;4.80;99.90;;;;;;5001271;28;20762;-64